Gassaway, WV

3:41 AM EST on February 27, 2015 (GMT -0500)
Benedum | Change Station
CLOSE
Current Station
Airport
Location: Clarksburg,
Elevation: 1204 ft
Nearby Weather Stations

Elev 1204 ft 39.30 °N, 80.23 °W | Updated 17 minutes ago

Snow
Snow
14 °F
Feels Like 1 °F
N
10
Wind Variable Wind from North

Today
High -- | Low -- °F
--% Chance of Precip.
Yesterday
High -- | Low -- °F
Precip. -- in
6:58 AM 6:13 PM
Waxing Gibbous, 67% visible
Pressure 30.25 in
Visibility 3.0 miles
Clouds Overcast 1900 ft
Windchill 1 °F
Dew Point 9 °F
Humidity 80%
Rainfall 0.00 in
Snow Depth Not available.
UV 0 out of 12
Pollen .60 out of 12
Air Quality Not available.
Flu Activity Not available.
SPECI KCKB 270824Z AUTO 01009KT 3SM -SN OVC019 M10/M13 A3025 RMK AO2 P0000 T11001128 TSNO

More Conditions Fewer Conditions

Pressure 30.25 in
Visibility 3.0 miles
Clouds Overcast 1900 ft
Windchill 1 °F
Dew Point 9 °F
Humidity 80%
Rainfall 0.00 in
Snow Depth Not available.
UV 0 out of 12
Pollen .60 out of 12
Air Quality Not available.
Flu Activity Not available.
SPECI KCKB 270824Z AUTO 01009KT 3SM -SN OVC019 M10/M13 A3025 RMK AO2 P0000 T11001128 TSNO

More Conditions Fewer Conditions

10-Day Weather Forecast

Almanac

Astronomy

Feb. 27, 2015 Rise Set
Actual Time
Civil Twilight
Nautical Twilight
Astronomical Twilight
Moon
Length of Visible Light
Length of Day
Tomorrow will be .
, % of the Moon is Illuminated

Today's Extremes

State Highs State Lows

Community

WunderPhotos

Upload Photos

1,800,649 photos uploaded!

WunderBlogs® & News

Nearby

Air Quality

  Air Quality AQ Index Pollutant
Not available.

Snow Depth

Station Depth Elevation

Earthquake Activity

City Distance Mag. Time & Date
Minimum magnitude displayed is 2.5.

Coastal Water Temperatures

Place Temperature

Nearby Weather Stations